createdAt,value
2023-01-28T00:00:07.319Z,-1.53
2023-01-28T00:02:35.997Z,-1.22
2023-01-28T00:05:05.136Z,-1.21
2023-01-28T00:07:34.145Z,-1.24
2023-01-28T00:10:02.155Z,-1.30
2023-01-28T00:12:32.844Z,-1.61
2023-01-28T00:15:01.249Z,-1.72
2023-01-28T00:17:29.569Z,-1.50
2023-01-28T00:19:58.917Z,-1.20
2023-01-28T00:22:27.162Z,-1.38
2023-01-28T00:24:55.334Z,-1.45
2023-01-28T00:27:23.418Z,-1.17
2023-01-28T00:29:51.632Z,-1.15
2023-01-28T00:32:20.103Z,-1.29
2023-01-28T00:34:50.215Z,-1.43
2023-01-28T00:37:18.314Z,-1.28
2023-01-28T00:39:47.051Z,-1.27
2023-01-28T00:42:14.932Z,-1.31
2023-01-28T00:44:43.306Z,-1.29
2023-01-28T00:47:11.445Z,-1.27
2023-01-28T00:49:39.331Z,-1.28
2023-01-28T00:52:07.442Z,-1.26
2023-01-28T00:54:36.969Z,-1.27
2023-01-28T00:57:05.048Z,-1.55
2023-01-28T00:59:33.335Z,-1.27
2023-01-28T01:02:13.033Z,-1.99
2023-01-28T01:04:41.874Z,-1.52
2023-01-28T01:07:09.826Z,-1.55
2023-01-28T01:09:37.805Z,-1.26
2023-01-28T01:12:09.268Z,-1.28
2023-01-28T01:14:37.579Z,-1.28
2023-01-28T01:17:05.412Z,-1.36
2023-01-28T01:19:33.833Z,-1.68
2023-01-28T01:22:02.284Z,-1.53
2023-01-28T01:24:34.173Z,-1.65
2023-01-28T01:27:02.604Z,-1.51
2023-01-28T01:29:30.690Z,-1.27
2023-01-28T01:31:58.637Z,-1.59
2023-01-28T01:34:26.810Z,-1.63
2023-01-28T01:36:54.679Z,-1.37
2023-01-28T01:39:22.590Z,-1.48
2023-01-28T01:41:50.949Z,-1.72
2023-01-28T01:45:04.537Z,-1.29
2023-01-28T01:47:35.859Z,-1.32
2023-01-28T01:50:24.773Z,-1.65
2023-01-28T01:52:59.835Z,-1.31
2023-01-28T01:55:32.171Z,-1.37
2023-01-28T01:58:07.093Z,-1.73
2023-01-28T02:00:35.069Z,-1.34
2023-01-28T02:03:03.916Z,-1.31
2023-01-28T02:05:32.493Z,-1.40
2023-01-28T02:08:21.093Z,-1.56
2023-01-28T02:11:05.761Z,-1.36
2023-01-28T02:13:48.525Z,-1.66
2023-01-28T02:16:17.172Z,-1.72
2023-01-28T02:18:46.004Z,-1.42
2023-01-28T02:22:15.647Z,-1.41
2023-01-28T02:25:25.764Z,-1.48
2023-01-28T02:28:18.319Z,-1.49
2023-01-28T02:31:12.873Z,-1.51
2023-01-28T02:33:45.687Z,-1.70
2023-01-28T02:36:33.833Z,-1.72
2023-01-28T02:39:10.996Z,-1.38
2023-01-28T02:41:55.732Z,-1.44
2023-01-28T02:44:24.976Z,-1.34
2023-01-28T02:47:12.819Z,-1.64
2023-01-28T02:49:50.789Z,-1.42
2023-01-28T02:53:15.119Z,-1.41
2023-01-28T02:56:04.981Z,-1.40
2023-01-28T02:58:51.837Z,-1.39
2023-01-28T03:01:43.826Z,-1.64
2023-01-28T03:04:22.225Z,-1.47
2023-01-28T03:06:58.588Z,-1.45
2023-01-28T03:09:27.438Z,-1.69
2023-01-28T03:12:26.560Z,-1.49
2023-01-28T03:15:23.084Z,-1.46
2023-01-28T03:18:25.305Z,-1.54
2023-01-28T03:21:26.378Z,-1.52
2023-01-28T03:24:48.901Z,-1.56
2023-01-28T03:27:50.947Z,-1.45
2023-01-28T03:31:02.135Z,-1.73
2023-01-28T03:34:02.480Z,-1.84
2023-01-28T03:36:50.708Z,-1.67
2023-01-28T03:39:38.746Z,-1.53
2023-01-28T03:42:14.850Z,-1.52
2023-01-28T03:45:04.226Z,-1.89
2023-01-28T03:47:34.371Z,-1.46
2023-01-28T03:50:06.809Z,-1.55
2023-01-28T03:52:46.575Z,-1.51
2023-01-28T03:55:29.019Z,-1.45
2023-01-28T03:57:57.282Z,-1.48
2023-01-28T04:00:25.271Z,-1.52
2023-01-28T04:02:54.655Z,-1.47
2023-01-28T04:05:22.995Z,-1.54
2023-01-28T04:07:55.728Z,-1.78
2023-01-28T04:11:15.918Z,-1.82
2023-01-28T04:13:48.776Z,-1.68
2023-01-28T04:16:20.738Z,-1.42
2023-01-28T04:18:49.135Z,-1.48
2023-01-28T04:21:17.856Z,-1.44
2023-01-28T04:23:55.815Z,-1.48
2023-01-28T04:26:24.153Z,-1.56
2023-01-28T04:28:52.004Z,-1.43
2023-01-28T04:31:20.853Z,-1.55
2023-01-28T04:34:20.931Z,-1.55
2023-01-28T04:37:16.068Z,-1.94
2023-01-28T04:39:43.933Z,-1.86
2023-01-28T04:42:22.114Z,-1.94
2023-01-28T04:45:04.838Z,-1.68
2023-01-28T04:47:52.760Z,-1.91
2023-01-28T04:50:44.739Z,-1.93
2023-01-28T04:53:35.667Z,-1.58
2023-01-28T04:56:08.698Z,-1.59
2023-01-28T04:58:37.821Z,-1.95
2023-01-28T05:01:10.352Z,-1.45
2023-01-28T05:03:38.663Z,-1.61
2023-01-28T05:06:08.253Z,-1.75
2023-01-28T05:08:47.488Z,-1.47
2023-01-28T05:11:16.975Z,-1.60
2023-01-28T05:13:46.669Z,-1.47
2023-01-28T05:16:15.606Z,-1.68
2023-01-28T05:18:44.918Z,-1.39
2023-01-28T05:21:16.961Z,-1.81
2023-01-28T05:23:45.193Z,-1.44
2023-01-28T05:26:13.472Z,-1.72
2023-01-28T05:28:41.715Z,-1.66
2023-01-28T05:31:11.021Z,-1.35
2023-01-28T05:33:39.478Z,-1.30
2023-01-28T05:36:10.499Z,-1.85
2023-01-28T05:38:39.616Z,-1.34
2023-01-28T05:41:07.591Z,-1.53
2023-01-28T05:43:37.550Z,-1.35
2023-01-28T05:46:16.692Z,-1.38
2023-01-28T05:49:08.503Z,-1.43
2023-01-28T05:52:11.671Z,-1.24
2023-01-28T05:54:40.321Z,-1.34
2023-01-28T05:57:08.475Z,-1.20
2023-01-28T05:59:37.104Z,-1.16
2023-01-28T06:02:06.910Z,-1.48
2023-01-28T06:04:34.982Z,-1.24
2023-01-28T06:07:03.636Z,-1.45
2023-01-28T06:09:33.387Z,-1.14
2023-01-28T06:12:01.831Z,-1.15
2023-01-28T06:14:32.920Z,-1.13
2023-01-28T06:17:18.681Z,-1.16
2023-01-28T06:20:03.982Z,-1.51
2023-01-28T06:22:33.733Z,-1.24
2023-01-28T06:25:02.056Z,-1.17
2023-01-28T06:27:30.194Z,-1.14
2023-01-28T06:29:58.272Z,-1.12
2023-01-28T06:32:27.398Z,-1.52
2023-01-28T06:34:55.707Z,-1.11
2023-01-28T06:37:26.253Z,-1.09
2023-01-28T06:39:55.029Z,-1.29
2023-01-28T06:42:23.243Z,-1.11
2023-01-28T06:44:51.421Z,-1.27
2023-01-28T06:47:19.820Z,-1.19
2023-01-28T06:49:47.980Z,-1.35
2023-01-28T06:52:16.248Z,-1.23
2023-01-28T06:54:44.951Z,-0.98
2023-01-28T06:57:13.104Z,-1.26
2023-01-28T06:59:41.571Z,-0.95
2023-01-28T07:02:12.286Z,-0.99
2023-01-28T07:04:40.306Z,-1.00
2023-01-28T07:07:08.508Z,-1.63
2023-01-28T07:09:36.954Z,-0.85
2023-01-28T07:12:06.240Z,-0.86
2023-01-28T07:14:34.981Z,-0.81
2023-01-28T07:17:03.945Z,-0.87
2023-01-28T07:19:32.805Z,-0.83
2023-01-28T07:22:03.194Z,-0.78
2023-01-28T07:24:31.715Z,-0.73
2023-01-28T07:27:00.188Z,-0.70
2023-01-28T07:29:28.240Z,-0.63
2023-01-28T07:31:56.607Z,-0.63
2023-01-28T07:34:25.080Z,-0.65
2023-01-28T07:36:53.391Z,-1.01
2023-01-28T07:39:21.747Z,-0.73
2023-01-28T07:41:49.894Z,-0.78
2023-01-28T07:44:34.847Z,-0.73
2023-01-28T07:47:04.585Z,-0.44
2023-01-28T07:49:34.843Z,-0.49
2023-01-28T07:52:03.105Z,-0.48
2023-01-28T07:54:31.230Z,-0.44
2023-01-28T07:56:59.515Z,-1.11
2023-01-28T07:59:27.974Z,-0.42
2023-01-28T08:01:57.016Z,-0.74
2023-01-28T08:04:25.908Z,-0.78
2023-01-28T08:06:54.677Z,-0.41
2023-01-28T08:09:23.535Z,-0.34
2023-01-28T08:11:51.937Z,-0.28
2023-01-28T08:14:20.440Z,-0.30
2023-01-28T08:16:48.498Z,-0.63
2023-01-28T08:19:18.540Z,-0.22
2023-01-28T08:21:48.958Z,-0.15
2023-01-28T08:24:17.965Z,-0.27
2023-01-28T08:26:49.157Z,-0.46
2023-01-28T08:29:17.288Z,-0.25
2023-01-28T08:31:45.458Z,-0.26
2023-01-28T08:34:13.490Z,-0.10
2023-01-28T08:36:41.713Z,-0.09
2023-01-28T08:39:10.091Z,-0.37
2023-01-28T08:41:40.131Z,-0.05
2023-01-28T08:44:09.246Z,-0.03
2023-01-28T08:46:38.300Z,-0.03
2023-01-28T08:49:07.625Z,0.07
2023-01-28T08:51:35.909Z,0.02
2023-01-28T08:54:05.491Z,-0.07
2023-01-28T08:56:33.631Z,-0.22
2023-01-28T08:59:01.940Z,0.05
2023-01-28T09:01:30.307Z,0.11
2023-01-28T09:03:58.400Z,0.16
2023-01-28T09:06:26.619Z,-0.16
2023-01-28T09:08:58.633Z,0.01
2023-01-28T09:11:28.412Z,-0.18
2023-01-28T09:13:58.784Z,-0.18
2023-01-28T09:16:27.792Z,0.11
2023-01-28T09:18:56.348Z,-0.10
2023-01-28T09:21:24.445Z,0.26
2023-01-28T09:23:52.491Z,0.29
2023-01-28T09:26:21.969Z,0.17
2023-01-28T09:28:50.478Z,0.13
2023-01-28T09:31:18.968Z,0.08
2023-01-28T09:33:49.287Z,0.20
2023-01-28T09:36:17.617Z,0.16
2023-01-28T09:38:45.684Z,0.08
2023-01-28T09:41:56.555Z,0.02
2023-01-28T09:44:59.218Z,-0.06
2023-01-28T09:47:43.357Z,-0.11
2023-01-28T09:50:39.643Z,-0.43
2023-01-28T09:53:24.619Z,-0.05
2023-01-28T09:56:17.226Z,-0.23
2023-01-28T09:58:45.431Z,-0.08
2023-01-28T10:01:47.298Z,0.10
2023-01-28T10:04:52.207Z,0.02
2023-01-28T10:07:37.401Z,0.11
2023-01-28T10:10:11.561Z,0.25
2023-01-28T10:13:28.397Z,0.23
2023-01-28T10:16:14.743Z,-0.22
2023-01-28T10:19:05.310Z,-0.22
2023-01-28T10:22:14.498Z,0.10
2023-01-28T10:24:52.961Z,0.09
2023-01-28T10:27:24.368Z,0.10
2023-01-28T10:29:54.337Z,-0.31
2023-01-28T10:32:35.401Z,-0.07
2023-01-28T10:35:04.824Z,-0.01
2023-01-28T10:37:37.433Z,-0.22
2023-01-28T10:40:12.918Z,-0.12
2023-01-28T10:42:41.630Z,-0.04
2023-01-28T10:45:26.065Z,-0.20
2023-01-28T10:48:23.613Z,-0.07
2023-01-28T10:51:02.125Z,-0.18
2023-01-28T10:53:43.052Z,-0.29
2023-01-28T10:56:32.030Z,-0.18
2023-01-28T10:59:29.780Z,-0.18
2023-01-28T11:02:05.418Z,-0.13
2023-01-28T11:04:37.378Z,-0.30
2023-01-28T11:07:18.871Z,-0.18
2023-01-28T11:09:51.903Z,-0.19
2023-01-28T11:12:24.458Z,-0.41
2023-01-28T11:14:57.658Z,-0.56
2023-01-28T11:17:30.381Z,-0.27
2023-01-28T11:20:10.520Z,-0.37
2023-01-28T11:22:43.296Z,-0.54
2023-01-28T11:25:32.155Z,-0.11
2023-01-28T11:28:06.911Z,-0.09
2023-01-28T11:30:42.192Z,-0.17
2023-01-28T11:33:44.057Z,-0.15
2023-01-28T11:36:35.786Z,-0.21
2023-01-28T11:39:28.961Z,-0.25
2023-01-28T11:42:19.381Z,-0.31
2023-01-28T11:44:49.606Z,-0.34
2023-01-28T11:47:37.814Z,-0.47
2023-01-28T11:50:30.064Z,-0.17
2023-01-28T11:53:52.692Z,-0.56
2023-01-28T11:57:17.379Z,-0.27
2023-01-28T12:00:25.299Z,-0.26
2023-01-28T12:03:00.172Z,-0.25
2023-01-28T12:06:06.643Z,-0.32
2023-01-28T12:09:09.789Z,-0.49
2023-01-28T12:12:15.265Z,-0.17
2023-01-28T12:15:09.035Z,-0.06
2023-01-28T12:18:20.274Z,-0.35
2023-01-28T12:20:55.633Z,-0.02
2023-01-28T12:23:30.114Z,0.01
2023-01-28T12:26:40.197Z,-0.23
2023-01-28T12:30:10.483Z,-0.27
2023-01-28T12:33:06.270Z,0.03
2023-01-28T12:36:17.993Z,0.08
2023-01-28T12:39:20.372Z,0.05
2023-01-28T12:41:57.896Z,-0.01
2023-01-28T12:44:38.955Z,0.00
2023-01-28T12:47:13.721Z,0.09
2023-01-28T12:50:10.407Z,0.07
2023-01-28T12:53:15.748Z,-0.36
2023-01-28T12:55:49.327Z,0.18
2023-01-28T12:58:33.867Z,0.13
2023-01-28T13:01:11.383Z,-0.08
2023-01-28T13:03:57.969Z,-0.09
2023-01-28T13:06:38.740Z,-0.06
2023-01-28T13:09:27.680Z,-0.06
2023-01-28T13:11:59.795Z,-0.17
2023-01-28T13:14:33.576Z,-0.27
2023-01-28T13:17:27.595Z,-0.22
2023-01-28T13:19:56.657Z,0.11
2023-01-28T13:22:37.654Z,0.04
2023-01-28T13:25:28.566Z,0.07
2023-01-28T13:28:07.337Z,0.09
2023-01-28T13:30:51.167Z,-0.57
2023-01-28T13:33:41.957Z,-0.07
2023-01-28T13:36:19.516Z,0.00
2023-01-28T13:38:48.591Z,-0.28
2023-01-28T13:41:16.574Z,0.03
2023-01-28T13:43:45.124Z,0.07
2023-01-28T13:46:28.670Z,-0.35
2023-01-28T13:48:59.895Z,-0.02
2023-01-28T13:51:34.271Z,0.00
2023-01-28T13:54:20.939Z,0.01
2023-01-28T13:57:02.960Z,-0.48
2023-01-28T13:59:49.977Z,-0.39
2023-01-28T14:02:41.742Z,-0.04
2023-01-28T14:05:26.938Z,-0.08
2023-01-28T14:08:49.408Z,-0.10
2023-01-28T14:11:54.765Z,-0.11
2023-01-28T14:14:55.952Z,-0.25
2023-01-28T14:17:55.529Z,-0.24
2023-01-28T14:20:30.763Z,-0.25
2023-01-28T14:23:22.527Z,-0.23
2023-01-28T14:26:09.673Z,-0.13
2023-01-28T14:29:00.334Z,-0.17
2023-01-28T14:31:37.276Z,-0.15
2023-01-28T14:34:35.361Z,-0.26
2023-01-28T14:37:14.676Z,-0.28
2023-01-28T14:39:54.198Z,-0.43
2023-01-28T14:42:32.158Z,-0.09
2023-01-28T14:45:23.192Z,-0.12
2023-01-28T14:48:22.508Z,-0.10
2023-01-28T14:51:08.842Z,-0.06
2023-01-28T14:53:54.519Z,-0.09
2023-01-28T14:57:02.430Z,-0.12
2023-01-28T14:59:37.774Z,-0.11
2023-01-28T15:02:31.951Z,-0.13
2023-01-28T15:05:16.068Z,-0.47
2023-01-28T15:07:47.445Z,-0.40
2023-01-28T15:10:26.276Z,-0.10
2023-01-28T15:13:09.464Z,-0.08
2023-01-28T15:15:41.087Z,-0.12
2023-01-28T15:18:31.476Z,-0.10
2023-01-28T15:21:00.866Z,-0.12
2023-01-28T15:23:38.915Z,-0.10
2023-01-28T15:26:26.023Z,-0.30
2023-01-28T15:28:56.535Z,-0.08
2023-01-28T15:31:34.822Z,-0.41
2023-01-28T15:34:16.951Z,-0.09
2023-01-28T15:36:45.536Z,-0.39
2023-01-28T15:39:20.838Z,-0.42
2023-01-28T15:41:55.428Z,-0.07
2023-01-28T15:44:39.132Z,-0.07
2023-01-28T15:47:38.381Z,-0.12
2023-01-28T15:50:09.673Z,-0.11
2023-01-28T15:52:42.595Z,-0.17
2023-01-28T15:55:33.079Z,-0.14
2023-01-28T15:58:19.896Z,-0.46
2023-01-28T16:00:49.920Z,-0.47
2023-01-28T16:03:22.271Z,-0.40
2023-01-28T16:06:07.897Z,-0.13
2023-01-28T16:09:03.889Z,-0.11
2023-01-28T16:11:45.027Z,-0.19
2023-01-28T16:14:26.923Z,-0.12
2023-01-28T16:16:56.870Z,-0.41
2023-01-28T16:19:41.865Z,-0.15
2023-01-28T16:22:39.699Z,-0.23
2023-01-28T16:25:41.762Z,-0.25
2023-01-28T16:28:20.931Z,-0.26
2023-01-28T16:30:49.319Z,-0.47
2023-01-28T16:33:22.813Z,-0.21
2023-01-28T16:36:06.580Z,-0.58
2023-01-28T16:38:35.984Z,-0.30
2023-01-28T16:41:04.857Z,-0.31
2023-01-28T16:46:09.234Z,-0.38
2023-01-28T16:48:38.222Z,-0.27
2023-01-28T16:51:06.802Z,-0.43
2023-01-28T16:53:35.969Z,-0.75
2023-01-28T16:56:07.032Z,-0.61
2023-01-28T16:58:36.078Z,-0.55
2023-01-28T17:01:04.700Z,-0.64
2023-01-28T17:03:34.110Z,-0.30
2023-01-28T17:06:03.567Z,-0.63
2023-01-28T17:08:34.176Z,-0.55
2023-01-28T17:11:08.541Z,-0.65
2023-01-28T17:13:48.145Z,-0.36
2023-01-28T17:16:18.002Z,-0.36
2023-01-28T17:18:51.866Z,-0.30
2023-01-28T17:21:21.132Z,-0.34
2023-01-28T17:23:49.860Z,-0.39
2023-01-28T17:26:19.144Z,-0.36
2023-01-28T17:28:54.754Z,-0.35
2023-01-28T17:31:26.655Z,-0.35
2023-01-28T17:33:58.209Z,-0.72
2023-01-28T17:36:28.966Z,-0.31
2023-01-28T17:38:57.988Z,-0.31
2023-01-28T17:41:28.818Z,-0.32
2023-01-28T17:44:01.496Z,-0.32
2023-01-28T17:46:30.767Z,-0.29
2023-01-28T17:48:59.278Z,-0.31
2023-01-28T17:51:27.430Z,-0.60
2023-01-28T17:53:56.861Z,-0.33
2023-01-28T17:56:29.452Z,-0.28
2023-01-28T17:59:04.295Z,-0.30
2023-01-28T18:01:34.831Z,-0.55
2023-01-28T18:04:05.248Z,-0.24
2023-01-28T18:06:38.237Z,-0.43
2023-01-28T18:09:07.755Z,-0.60
2023-01-28T18:11:37.955Z,-0.27
2023-01-28T18:14:06.641Z,-0.26
2023-01-28T18:16:37.791Z,-0.51
2023-01-28T18:19:06.829Z,-0.31
2023-01-28T18:21:52.276Z,-0.34
2023-01-28T18:24:29.150Z,-0.46
2023-01-28T18:27:00.370Z,-0.41
2023-01-28T18:29:31.060Z,-0.60
2023-01-28T18:32:00.169Z,-0.73
2023-01-28T18:34:32.038Z,-0.53
2023-01-28T18:37:00.484Z,-0.79
2023-01-28T18:39:31.501Z,-0.46
2023-01-28T18:42:00.516Z,-0.54
2023-01-28T18:44:30.640Z,-0.62
2023-01-28T18:46:59.210Z,-0.47
2023-01-28T18:49:27.474Z,-0.49
2023-01-28T18:51:55.611Z,-0.76
2023-01-28T18:54:25.177Z,-0.53
2023-01-28T18:56:54.394Z,-0.59
2023-01-28T18:59:23.159Z,-0.86
2023-01-28T19:01:52.268Z,-0.60
2023-01-28T19:04:21.360Z,-0.53
2023-01-28T19:06:51.061Z,-0.56
2023-01-28T19:09:19.989Z,-0.77
2023-01-28T19:11:48.727Z,-0.56
2023-01-28T19:14:18.573Z,-0.81
2023-01-28T19:16:46.794Z,-0.51
2023-01-28T19:19:15.315Z,-0.81
2023-01-28T19:21:43.702Z,-0.59
2023-01-28T19:24:14.437Z,-0.49
2023-01-28T19:26:47.023Z,-0.49
2023-01-28T19:29:16.395Z,-0.49
2023-01-28T19:31:49.186Z,-0.45
2023-01-28T19:34:17.692Z,-0.48
2023-01-28T19:36:46.199Z,-0.60
2023-01-28T19:39:15.714Z,-0.49
2023-01-28T19:41:45.763Z,-0.55
2023-01-28T19:44:14.639Z,-0.80
2023-01-28T19:46:43.282Z,-0.50
2023-01-28T19:49:13.063Z,-0.49
2023-01-28T19:51:41.848Z,-0.37
2023-01-28T19:54:11.429Z,-1.18
2023-01-28T19:56:39.892Z,-0.39
2023-01-28T19:59:09.097Z,-0.35
2023-01-28T20:01:37.863Z,-0.80
2023-01-28T20:04:07.659Z,-0.54
2023-01-28T20:06:37.130Z,-0.49
2023-01-28T20:09:14.383Z,-0.46
2023-01-28T20:11:43.133Z,-1.29
2023-01-28T20:14:12.088Z,-0.85
2023-01-28T20:16:41.319Z,-0.43
2023-01-28T20:19:18.763Z,-0.57
2023-01-28T20:21:51.158Z,-0.39
2023-01-28T20:24:19.739Z,-0.44
2023-01-28T20:26:48.035Z,-0.59
2023-01-28T20:29:19.210Z,-0.54
2023-01-28T20:32:04.337Z,-0.60
2023-01-28T20:34:40.063Z,-0.55
2023-01-28T20:37:11.981Z,-0.56
2023-01-28T20:39:40.620Z,-0.52
2023-01-28T20:42:10.767Z,-0.56
2023-01-28T20:44:41.398Z,-0.74
2023-01-28T20:47:11.781Z,-0.55
2023-01-28T20:49:41.134Z,-0.60
2023-01-28T20:52:09.507Z,-0.80
2023-01-28T20:54:42.780Z,-0.56
2023-01-28T20:57:12.076Z,-0.52
2023-01-28T20:59:41.069Z,-0.58
2023-01-28T21:02:12.684Z,-0.73
2023-01-28T21:04:42.364Z,-0.48
2023-01-28T21:07:13.232Z,-0.44
2023-01-28T21:09:42.792Z,-0.44
2023-01-28T21:12:12.379Z,-0.48
2023-01-28T21:14:41.672Z,-0.49
2023-01-28T21:17:10.777Z,-0.62
2023-01-28T21:19:40.702Z,-0.58
2023-01-28T21:22:09.893Z,-0.54
2023-01-28T21:24:39.372Z,-0.70
2023-01-28T21:27:07.690Z,-0.60
2023-01-28T21:29:37.001Z,-0.78
2023-01-28T21:32:06.476Z,-0.88
2023-01-28T21:34:34.946Z,-0.61
2023-01-28T21:37:04.862Z,-0.69
2023-01-28T21:39:33.274Z,-0.59
2023-01-28T21:42:01.759Z,-0.55
2023-01-28T21:44:30.205Z,-0.73
2023-01-28T21:46:58.530Z,-0.96
2023-01-28T21:49:27.146Z,-0.79
2023-01-28T21:51:55.816Z,-0.69
2023-01-28T21:54:24.875Z,-0.73
2023-01-28T21:56:53.770Z,-0.81
2023-01-28T21:59:28.312Z,-0.80
2023-01-28T22:02:07.552Z,-0.86
2023-01-28T22:04:42.945Z,-0.82
2023-01-28T22:07:18.220Z,-0.75
2023-01-28T22:09:48.089Z,-0.81
2023-01-28T22:12:18.125Z,-1.02
2023-01-28T22:14:48.383Z,-0.88
2023-01-28T22:17:19.322Z,-1.10
2023-01-28T22:19:50.800Z,-0.89
2023-01-28T22:22:19.524Z,-1.34
2023-01-28T22:24:48.210Z,-1.33
2023-01-28T22:27:16.789Z,-0.88
2023-01-28T22:29:45.383Z,-0.90
2023-01-28T22:32:14.469Z,-0.99
2023-01-28T22:34:46.693Z,-0.98
2023-01-28T22:37:16.267Z,-0.96
2023-01-28T22:39:45.398Z,-1.31
2023-01-28T22:42:13.961Z,-1.40
2023-01-28T22:44:42.568Z,-1.29
2023-01-28T22:47:11.872Z,-1.30
2023-01-28T22:49:40.449Z,-0.98
2023-01-28T22:52:09.435Z,-0.97
2023-01-28T22:54:38.185Z,-0.95
2023-01-28T22:57:06.669Z,-1.20
2023-01-28T22:59:35.005Z,-1.21
2023-01-28T23:02:05.449Z,-1.14
2023-01-28T23:04:35.038Z,-0.81
2023-01-28T23:07:03.699Z,-1.24
2023-01-28T23:09:32.196Z,-0.98
2023-01-28T23:12:00.333Z,-1.02
2023-01-28T23:14:47.784Z,-1.00
2023-01-28T23:17:35.047Z,-0.97
2023-01-28T23:20:23.043Z,-1.59
2023-01-28T23:23:09.976Z,-1.04
2023-01-28T23:25:38.419Z,-1.12
2023-01-28T23:28:06.929Z,-1.13
2023-01-28T23:30:35.759Z,-1.12
2023-01-28T23:33:05.482Z,-1.26
2023-01-28T23:35:33.732Z,-1.09
2023-01-28T23:38:02.116Z,-1.56
2023-01-28T23:40:30.297Z,-1.26
2023-01-28T23:42:58.732Z,-1.45
2023-01-28T23:45:27.349Z,-1.32
2023-01-28T23:47:56.832Z,-1.39
2023-01-28T23:50:25.005Z,-1.28
2023-01-28T23:52:53.214Z,-1.29
2023-01-28T23:55:21.996Z,-1.68
2023-01-28T23:57:50.564Z,-1.63
